To NAV CANADA Home Page Login to a new session Search on AWWS site Feedback and Comments Disclaimer Vers la page française équivalente Tips FAQ What's new on the site To the Forecasts and Observations / NOTAM section To "File a Flight Plan" website Publications and other links Update of the User's profile FIC Telephone Numbers My Weather Data Folder Route Weather Data Regional Weather Data Local Weather Data To the Forecasts and Observations / NOTAM section
Request Generated 04/18/2015 at 04:52:24 UTC . Weather information available at that time is displayed.

METAR/TAF

HAY RIVER/MERLYN CARTER AIRPORT/NT    

METAR CYHY 180400Z 06006KT 15SM OVC030 M01/M02 A2999 RMK SC8 SLP165=
METAR CYHY 180300Z 06003KT 15SM OVC030 01/M03 A2997 RMK SC8 SLP159=
METAR CYHY 180200Z 07005KT 15SM OVC030 02/M03 A2995 RMK SC8 SLP154=

TAF AMD CYHY 180217Z 1802/1812 07005KT P6SM OVC030 TEMPO 1802/1812
P6SM -SHRASN BKN020 OVC030
RMK NXT FCST BY 180600Z=
Your time UTC time
Weather data provided by Environment Canada and NAV CANADA